createdAt,value
2022-11-14T00:00:24.329Z,10.90
2022-11-14T00:01:45.076Z,10.80
2022-11-14T00:03:07.372Z,10.80
2022-11-14T00:04:29.653Z,10.80
2022-11-14T00:05:50.566Z,10.80
2022-11-14T00:07:11.702Z,10.80
2022-11-14T00:08:32.873Z,10.80
2022-11-14T00:09:56.483Z,10.80
2022-11-14T00:11:17.462Z,10.80
2022-11-14T00:12:38.170Z,10.80
2022-11-14T00:13:58.696Z,10.80
2022-11-14T00:15:25.240Z,10.80
2022-11-14T00:16:46.191Z,10.80
2022-11-14T00:18:07.038Z,10.70
2022-11-14T00:19:28.374Z,10.80
2022-11-14T00:20:50.251Z,10.70
2022-11-14T00:22:10.873Z,10.80
2022-11-14T00:23:31.762Z,10.70
2022-11-14T00:24:52.290Z,10.70
2022-11-14T00:26:12.878Z,10.80
2022-11-14T00:27:33.349Z,10.70
2022-11-14T00:28:57.428Z,10.70
2022-11-14T00:30:18.558Z,10.70
2022-11-14T00:31:39.225Z,10.70
2022-11-14T00:32:59.858Z,10.80
2022-11-14T00:34:20.465Z,10.80
2022-11-14T00:35:41.396Z,10.80
2022-11-14T00:37:01.984Z,10.80
2022-11-14T00:38:23.585Z,10.80
2022-11-14T00:39:44.601Z,10.80
2022-11-14T00:41:05.652Z,10.80
2022-11-14T00:42:26.430Z,10.80
2022-11-14T00:43:46.879Z,10.80
2022-11-14T00:45:08.005Z,10.80
2022-11-14T00:46:28.444Z,10.80
2022-11-14T00:47:49.418Z,10.80
2022-11-14T00:49:10.803Z,10.90
2022-11-14T00:50:33.708Z,10.90
2022-11-14T00:51:54.375Z,10.90
2022-11-14T00:53:15.202Z,11.00
2022-11-14T00:54:39.059Z,10.90
2022-11-14T00:56:00.665Z,11.00
2022-11-14T00:57:21.216Z,11.00
2022-11-14T00:58:42.004Z,11.00
2022-11-14T01:00:03.830Z,11.00
2022-11-14T01:01:24.732Z,11.00
2022-11-14T01:02:51.914Z,10.90
2022-11-14T01:04:12.774Z,10.90
2022-11-14T01:05:34.188Z,10.90
2022-11-14T01:06:54.767Z,10.90
2022-11-14T01:08:16.811Z,10.90
2022-11-14T01:09:37.842Z,10.90
2022-11-14T01:11:00.507Z,10.90
2022-11-14T01:12:28.366Z,10.90
2022-11-14T01:13:49.073Z,11.00
2022-11-14T01:15:10.404Z,11.00
2022-11-14T01:16:36.436Z,11.00
2022-11-14T01:17:57.565Z,11.00
2022-11-14T01:19:17.999Z,10.90
2022-11-14T01:20:41.624Z,10.90
2022-11-14T01:22:06.115Z,10.90
2022-11-14T01:23:27.610Z,10.90
2022-11-14T01:24:48.154Z,10.80
2022-11-14T01:26:14.428Z,10.80
2022-11-14T01:27:35.282Z,10.80
2022-11-14T01:28:56.306Z,10.80
2022-11-14T01:30:16.738Z,10.80
2022-11-14T01:31:40.314Z,10.90
2022-11-14T01:33:01.312Z,10.90
2022-11-14T01:34:22.590Z,11.00
2022-11-14T01:35:43.051Z,11.00
2022-11-14T01:37:04.017Z,11.00
2022-11-14T01:38:27.883Z,11.10
2022-11-14T01:39:49.135Z,11.10
2022-11-14T01:41:14.932Z,11.10
2022-11-14T01:42:35.659Z,11.20
2022-11-14T01:43:56.311Z,11.20
2022-11-14T01:46:02.165Z,11.20
2022-11-14T01:47:27.623Z,11.20
2022-11-14T01:48:50.637Z,11.30
2022-11-14T01:50:11.429Z,11.20
2022-11-14T01:51:31.867Z,11.20
2022-11-14T01:52:52.926Z,11.30
2022-11-14T01:54:35.548Z,11.30
2022-11-14T01:56:01.376Z,11.30
2022-11-14T01:57:28.521Z,11.30
2022-11-14T01:58:59.870Z,11.30
2022-11-14T02:00:22.016Z,11.30
2022-11-14T02:01:49.121Z,11.30
2022-11-14T02:03:15.215Z,11.30
2022-11-14T02:04:42.793Z,11.30
2022-11-14T02:06:04.817Z,11.30
2022-11-14T02:07:28.915Z,11.30
2022-11-14T02:08:51.650Z,11.40
2022-11-14T02:10:20.822Z,11.40
2022-11-14T02:11:44.994Z,11.40
2022-11-14T02:13:05.588Z,11.40
2022-11-14T02:14:28.361Z,11.40
2022-11-14T02:15:49.825Z,11.30
2022-11-14T02:17:40.935Z,11.40
2022-11-14T02:18:52.036Z,11.40
2022-11-14T02:20:12.877Z,11.40
2022-11-14T02:21:33.266Z,11.50
2022-11-14T02:22:53.599Z,11.50
2022-11-14T02:24:14.563Z,11.50
2022-11-14T02:25:35.433Z,11.50
2022-11-14T02:26:56.420Z,11.50
2022-11-14T02:28:16.979Z,11.50
2022-11-14T02:29:38.634Z,11.50
2022-11-14T02:30:59.515Z,11.50
2022-11-14T02:32:19.953Z,11.50
2022-11-14T02:33:40.755Z,11.50
2022-11-14T02:35:01.558Z,11.50
2022-11-14T02:36:22.783Z,11.50
2022-11-14T02:37:43.409Z,11.60
2022-11-14T02:39:04.070Z,11.60
2022-11-14T02:40:24.657Z,11.60
2022-11-14T02:41:45.865Z,11.60
2022-11-14T02:43:06.534Z,11.60
2022-11-14T02:44:27.285Z,11.60
2022-11-14T02:45:47.801Z,11.50
2022-11-14T02:47:08.301Z,11.50
2022-11-14T02:48:29.178Z,11.50
2022-11-14T02:49:50.394Z,11.40
2022-11-14T02:51:10.904Z,11.40
2022-11-14T02:52:31.410Z,11.40
2022-11-14T02:53:52.574Z,11.40
2022-11-14T02:55:13.231Z,11.30
2022-11-14T02:56:34.194Z,11.30
2022-11-14T02:57:54.601Z,11.30
2022-11-14T02:59:15.679Z,11.40
2022-11-14T03:00:38.585Z,11.30
2022-11-14T03:02:09.150Z,11.30
2022-11-14T03:03:30.095Z,11.30
2022-11-14T03:04:50.964Z,11.30
2022-11-14T03:06:17.189Z,11.30
2022-11-14T03:07:38.314Z,11.30
2022-11-14T03:09:04.555Z,11.30
2022-11-14T03:10:25.343Z,11.30
2022-11-14T03:11:49.538Z,11.20
2022-11-14T03:13:10.178Z,11.20
2022-11-14T03:14:31.806Z,11.20
2022-11-14T03:15:52.467Z,11.20
2022-11-14T03:17:13.663Z,11.10
2022-11-14T03:18:39.461Z,11.10
2022-11-14T03:20:00.599Z,11.00
2022-11-14T03:21:29.465Z,11.00
2022-11-14T03:22:49.956Z,11.00
2022-11-14T03:24:10.907Z,10.90
2022-11-14T03:25:32.348Z,10.90
2022-11-14T03:26:53.317Z,10.90
2022-11-14T03:28:14.146Z,10.90
2022-11-14T03:29:42.613Z,10.90
2022-11-14T03:31:03.332Z,10.80
2022-11-14T03:32:23.898Z,10.80
2022-11-14T03:33:44.576Z,10.80
2022-11-14T03:35:05.857Z,10.80
2022-11-14T03:36:26.314Z,10.80
2022-11-14T03:37:47.440Z,10.80
2022-11-14T03:39:09.299Z,10.80
2022-11-14T03:40:29.977Z,10.80
2022-11-14T03:41:50.951Z,10.80
2022-11-14T03:43:11.412Z,10.80
2022-11-14T03:44:33.318Z,10.70
2022-11-14T03:45:54.234Z,10.70
2022-11-14T03:47:16.783Z,10.80
2022-11-14T03:48:38.094Z,10.80
2022-11-14T03:49:58.901Z,10.70
2022-11-14T03:51:19.884Z,10.70
2022-11-14T03:52:40.189Z,10.60
2022-11-14T03:54:09.974Z,10.60
2022-11-14T03:55:30.903Z,10.60
2022-11-14T03:56:51.963Z,10.70
2022-11-14T03:58:12.712Z,10.70
2022-11-14T03:59:33.096Z,10.70
2022-11-14T04:00:56.206Z,10.70
2022-11-14T04:02:17.170Z,10.70
2022-11-14T04:03:38.052Z,10.70
2022-11-14T04:04:59.475Z,10.70
2022-11-14T04:06:20.341Z,10.70
2022-11-14T04:07:41.348Z,10.70
2022-11-14T04:09:02.408Z,10.70
2022-11-14T04:10:22.930Z,10.60
2022-11-14T04:11:43.704Z,10.60
2022-11-14T04:13:05.354Z,10.60
2022-11-14T04:14:26.172Z,10.60
2022-11-14T04:15:47.547Z,10.60
2022-11-14T04:17:08.244Z,10.60
2022-11-14T04:18:29.169Z,10.70
2022-11-14T04:19:50.589Z,10.70
2022-11-14T04:21:11.635Z,10.70
2022-11-14T04:22:32.381Z,10.80
2022-11-14T04:23:53.497Z,10.80
2022-11-14T04:25:14.047Z,10.80
2022-11-14T04:26:34.763Z,10.80
2022-11-14T04:27:55.526Z,10.70
2022-11-14T04:29:16.284Z,10.70
2022-11-14T04:30:40.122Z,10.70
2022-11-14T04:32:01.187Z,10.70
2022-11-14T04:33:22.059Z,10.70
2022-11-14T04:34:45.051Z,10.70
2022-11-14T04:36:05.590Z,10.70
2022-11-14T04:37:26.820Z,10.70
2022-11-14T04:38:47.361Z,10.60
2022-11-14T04:40:09.014Z,10.60
2022-11-14T04:41:29.608Z,10.60
2022-11-14T04:42:50.485Z,10.70
2022-11-14T04:44:17.149Z,10.70
2022-11-14T04:45:37.941Z,10.70
2022-11-14T04:46:58.511Z,10.70
2022-11-14T04:48:19.544Z,10.60
2022-11-14T04:49:40.499Z,10.60
2022-11-14T04:51:01.349Z,10.50
2022-11-14T04:52:21.954Z,10.50
2022-11-14T04:53:42.354Z,10.50
2022-11-14T04:55:03.529Z,10.50
2022-11-14T04:56:25.562Z,10.50
2022-11-14T04:57:46.544Z,10.50
2022-11-14T04:59:07.688Z,10.50
2022-11-14T05:00:28.850Z,10.50
2022-11-14T05:01:49.644Z,10.50
2022-11-14T05:03:10.455Z,10.50
2022-11-14T05:04:31.331Z,10.60
2022-11-14T05:05:52.036Z,10.50
2022-11-14T05:07:22.768Z,10.60
2022-11-14T05:08:43.725Z,10.60
2022-11-14T05:10:05.055Z,10.60
2022-11-14T05:11:29.195Z,10.60
2022-11-14T05:12:54.707Z,10.60
2022-11-14T05:14:15.582Z,10.60
2022-11-14T05:15:36.244Z,10.60
2022-11-14T05:16:56.893Z,10.70
2022-11-14T05:18:17.498Z,10.70
2022-11-14T05:19:38.030Z,10.70
2022-11-14T05:21:05.833Z,10.70
2022-11-14T05:22:26.854Z,10.70
2022-11-14T05:23:47.353Z,10.70
2022-11-14T05:25:08.964Z,10.70
2022-11-14T05:26:32.514Z,10.70
2022-11-14T05:27:53.530Z,10.70
2022-11-14T05:29:14.258Z,10.70
2022-11-14T05:30:44.976Z,10.70
2022-11-14T05:32:06.304Z,10.70
2022-11-14T05:33:30.925Z,10.70
2022-11-14T05:34:51.664Z,10.70
2022-11-14T05:36:18.909Z,10.70
2022-11-14T05:37:39.453Z,10.70
2022-11-14T05:39:00.615Z,10.60
2022-11-14T05:40:21.539Z,10.70
2022-11-14T05:41:42.573Z,10.60
2022-11-14T05:43:03.768Z,10.70
2022-11-14T05:44:25.067Z,10.70
2022-11-14T05:45:45.900Z,10.70
2022-11-14T05:47:06.883Z,10.70
2022-11-14T05:48:28.129Z,10.80
2022-11-14T05:49:49.271Z,10.70
2022-11-14T05:51:13.932Z,10.80
2022-11-14T05:52:34.944Z,10.80
2022-11-14T05:53:55.711Z,10.80
2022-11-14T05:55:20.547Z,10.80
2022-11-14T05:56:45.319Z,10.80
2022-11-14T05:58:06.397Z,10.80
2022-11-14T05:59:27.820Z,10.80
2022-11-14T06:00:53.672Z,10.80
2022-11-14T06:02:15.302Z,10.80
2022-11-14T06:03:39.574Z,10.90
2022-11-14T06:05:01.292Z,10.80
2022-11-14T06:06:22.579Z,10.90
2022-11-14T06:07:43.806Z,10.90
2022-11-14T06:09:05.082Z,10.90
2022-11-14T06:10:26.624Z,10.90
2022-11-14T06:11:47.807Z,10.90
2022-11-14T06:13:08.792Z,10.90
2022-11-14T06:14:29.812Z,11.00
2022-11-14T06:15:51.256Z,11.00
2022-11-14T06:17:12.183Z,11.00
2022-11-14T06:18:34.441Z,11.00
2022-11-14T06:19:54.830Z,11.00
2022-11-14T06:21:19.252Z,11.00
2022-11-14T06:22:43.450Z,11.00
2022-11-14T06:24:04.546Z,11.00
2022-11-14T06:25:25.172Z,11.00
2022-11-14T06:26:46.271Z,11.00
2022-11-14T06:28:07.390Z,11.00
2022-11-14T06:29:31.401Z,11.00
2022-11-14T06:31:00.475Z,11.00
2022-11-14T06:32:21.684Z,11.00
2022-11-14T06:33:42.375Z,11.00
2022-11-14T06:35:03.066Z,11.00
2022-11-14T06:36:23.775Z,11.00
2022-11-14T06:37:44.780Z,11.00
2022-11-14T06:39:06.223Z,11.00
2022-11-14T06:40:26.810Z,11.00
2022-11-14T06:41:47.468Z,11.00
2022-11-14T06:43:08.311Z,11.10
2022-11-14T06:44:31.066Z,11.10
2022-11-14T06:45:56.022Z,11.10
2022-11-14T06:47:16.875Z,11.10
2022-11-14T06:48:39.109Z,11.10
2022-11-14T06:49:59.885Z,11.10
2022-11-14T06:51:20.617Z,11.10
2022-11-14T06:52:41.111Z,11.00
2022-11-14T06:54:01.839Z,11.00
2022-11-14T06:55:25.460Z,11.00
2022-11-14T06:56:46.837Z,11.00
2022-11-14T06:58:07.508Z,11.00
2022-11-14T06:59:28.510Z,11.00
2022-11-14T07:00:48.811Z,11.00
2022-11-14T07:02:17.798Z,11.00
2022-11-14T07:03:44.452Z,11.10
2022-11-14T07:05:05.667Z,11.10
2022-11-14T07:06:27.637Z,11.10
2022-11-14T07:07:48.427Z,11.10
2022-11-14T07:09:10.663Z,11.10
2022-11-14T07:10:31.598Z,11.10
2022-11-14T07:11:52.246Z,11.10
2022-11-14T07:13:13.288Z,11.10
2022-11-14T07:14:33.810Z,11.00
2022-11-14T07:15:55.364Z,11.00
2022-11-14T07:17:15.822Z,11.00
2022-11-14T07:18:36.458Z,11.10
2022-11-14T07:19:57.606Z,11.10
2022-11-14T07:21:18.146Z,11.10
2022-11-14T07:22:39.049Z,11.10
2022-11-14T07:23:59.895Z,11.10
2022-11-14T07:25:22.894Z,11.20
2022-11-14T07:26:43.770Z,11.20
2022-11-14T07:28:05.057Z,11.20
2022-11-14T07:29:25.706Z,11.20
2022-11-14T07:30:46.208Z,11.20
2022-11-14T07:32:06.696Z,11.30
2022-11-14T07:33:27.240Z,11.30
2022-11-14T07:34:47.852Z,11.30
2022-11-14T07:36:10.011Z,11.30
2022-11-14T07:37:30.944Z,11.30
2022-11-14T07:38:51.159Z,11.30
2022-11-14T07:40:12.433Z,11.30
2022-11-14T07:41:33.252Z,11.30
2022-11-14T07:42:59.284Z,11.30
2022-11-14T07:44:19.877Z,11.30
2022-11-14T07:45:40.703Z,11.30
2022-11-14T07:47:04.131Z,11.40
2022-11-14T07:48:24.691Z,11.30
2022-11-14T07:49:44.977Z,11.30
2022-11-14T07:51:09.385Z,11.30
2022-11-14T07:52:31.568Z,11.30
2022-11-14T07:53:54.131Z,11.30
2022-11-14T07:55:14.873Z,11.40
2022-11-14T07:56:35.890Z,11.40
2022-11-14T07:57:59.572Z,11.30
2022-11-14T07:59:20.259Z,11.30
2022-11-14T08:00:41.005Z,11.30
2022-11-14T08:02:01.756Z,11.30
2022-11-14T08:03:22.033Z,11.30
2022-11-14T08:04:46.052Z,11.30
2022-11-14T08:06:12.285Z,11.30
2022-11-14T08:07:33.057Z,11.30
2022-11-14T08:08:54.211Z,11.30
2022-11-14T08:10:15.633Z,11.30
2022-11-14T08:11:48.254Z,11.30
2022-11-14T08:13:30.905Z,11.30
2022-11-14T08:14:51.890Z,11.30
2022-11-14T08:16:14.252Z,11.30
2022-11-14T08:17:35.011Z,11.30
2022-11-14T08:18:55.396Z,11.30
2022-11-14T08:20:16.183Z,11.30
2022-11-14T08:21:37.257Z,11.40
2022-11-14T08:23:07.148Z,11.30
2022-11-14T08:24:27.674Z,11.30
2022-11-14T08:25:48.763Z,11.30
2022-11-14T08:27:09.803Z,11.30
2022-11-14T08:28:31.471Z,11.40
2022-11-14T08:29:52.678Z,11.30
2022-11-14T08:31:13.805Z,11.30
2022-11-14T08:32:35.414Z,11.30
2022-11-14T08:33:56.314Z,11.30
2022-11-14T08:35:17.551Z,11.40
2022-11-14T08:36:38.324Z,11.30
2022-11-14T08:38:00.696Z,11.40
2022-11-14T08:39:21.770Z,11.40
2022-11-14T08:40:42.709Z,11.40
2022-11-14T08:42:03.984Z,11.40
2022-11-14T08:43:25.134Z,11.40
2022-11-14T08:44:51.672Z,11.40
2022-11-14T08:46:15.975Z,11.40
2022-11-14T08:47:36.494Z,11.40
2022-11-14T08:48:57.117Z,11.40
2022-11-14T08:50:20.800Z,11.40
2022-11-14T08:51:41.791Z,11.40
2022-11-14T08:53:02.669Z,11.40
2022-11-14T08:54:23.490Z,11.40
2022-11-14T08:55:45.503Z,11.40
2022-11-14T08:57:06.767Z,11.40
2022-11-14T08:58:30.541Z,11.40
2022-11-14T08:59:51.424Z,11.40
2022-11-14T09:01:13.035Z,11.40
2022-11-14T09:02:35.754Z,11.40
2022-11-14T09:03:59.852Z,11.40
2022-11-14T09:05:21.532Z,11.40
2022-11-14T09:06:43.754Z,11.40
2022-11-14T09:08:05.241Z,11.40
2022-11-14T09:09:26.006Z,11.40
2022-11-14T09:10:46.661Z,11.30
2022-11-14T09:12:07.869Z,11.30
2022-11-14T09:13:29.821Z,11.30
2022-11-14T09:14:50.739Z,11.40
2022-11-14T09:16:11.729Z,11.40
2022-11-14T09:17:32.620Z,11.40
2022-11-14T09:18:53.085Z,11.40
2022-11-14T09:20:14.365Z,11.40
2022-11-14T09:21:35.007Z,11.40
2022-11-14T09:22:59.240Z,11.40
2022-11-14T09:24:20.061Z,11.40
2022-11-14T09:25:41.534Z,11.40
2022-11-14T09:27:02.184Z,11.40
2022-11-14T09:28:24.835Z,11.40
2022-11-14T09:29:45.800Z,11.40
2022-11-14T09:31:09.876Z,11.40
2022-11-14T09:32:30.589Z,11.40
2022-11-14T09:33:51.200Z,11.40
2022-11-14T09:35:12.938Z,11.40
2022-11-14T09:36:33.381Z,11.40
2022-11-14T09:38:05.865Z,11.40
2022-11-14T09:39:26.625Z,11.40
2022-11-14T09:40:58.559Z,11.50
2022-11-14T09:42:38.161Z,11.50
2022-11-14T09:44:28.165Z,11.50
2022-11-14T09:45:51.452Z,11.50
2022-11-14T09:47:21.974Z,11.60
2022-11-14T09:48:43.836Z,11.60
2022-11-14T09:50:12.110Z,11.60
2022-11-14T09:51:37.106Z,11.60
2022-11-14T09:53:03.393Z,11.70
2022-11-14T09:54:31.108Z,11.70
2022-11-14T09:55:52.273Z,11.70
2022-11-14T09:57:18.245Z,11.70
2022-11-14T09:58:41.492Z,11.70
2022-11-14T10:00:02.279Z,11.80
2022-11-14T10:01:42.415Z,11.80
2022-11-14T10:03:03.257Z,11.80
2022-11-14T10:04:42.604Z,11.70
2022-11-14T10:06:09.533Z,11.80
2022-11-14T10:07:54.708Z,11.80
2022-11-14T10:09:36.494Z,11.80
2022-11-14T10:11:09.481Z,11.70
2022-11-14T10:13:14.725Z,11.80
2022-11-14T10:15:21.040Z,11.80
2022-11-14T10:16:52.821Z,11.70
2022-11-14T10:18:37.259Z,11.70
2022-11-14T10:20:22.613Z,11.70
2022-11-14T10:22:04.432Z,11.70
2022-11-14T10:23:50.869Z,11.70
2022-11-14T10:25:23.249Z,11.70
2022-11-14T10:27:00.014Z,11.70
2022-11-14T10:28:45.060Z,11.70
2022-11-14T10:30:19.342Z,11.80
2022-11-14T10:31:59.165Z,11.80
2022-11-14T10:33:47.286Z,11.80
2022-11-14T10:35:19.976Z,11.90
2022-11-14T10:37:17.597Z,11.90
2022-11-14T10:38:51.298Z,11.90
2022-11-14T10:40:38.891Z,11.90
2022-11-14T10:42:07.672Z,12.00
2022-11-14T10:43:39.824Z,12.00
2022-11-14T10:45:12.677Z,12.00
2022-11-14T10:46:39.503Z,12.10
2022-11-14T10:48:17.149Z,12.10
2022-11-14T10:49:40.185Z,12.10
2022-11-14T10:51:08.470Z,12.10
2022-11-14T10:52:42.658Z,12.10
2022-11-14T10:54:20.349Z,12.10
2022-11-14T10:56:03.089Z,12.20
2022-11-14T10:57:24.827Z,12.20
2022-11-14T10:58:49.665Z,12.20
2022-11-14T11:00:17.368Z,12.20
2022-11-14T11:01:40.334Z,12.20
2022-11-14T11:03:01.030Z,12.30
2022-11-14T11:04:28.152Z,12.30
2022-11-14T11:05:52.682Z,12.30
2022-11-14T11:08:15.034Z,12.40
2022-11-14T11:10:01.334Z,12.70
2022-11-14T11:11:31.517Z,13.10
2022-11-14T11:12:54.431Z,13.30
2022-11-14T11:14:21.195Z,13.40
2022-11-14T11:15:44.931Z,13.40
2022-11-14T11:17:21.151Z,13.40
2022-11-14T11:18:42.449Z,13.40
2022-11-14T11:20:42.546Z,13.30
2022-11-14T11:22:06.112Z,13.40
2022-11-14T11:23:30.320Z,13.40
2022-11-14T11:24:51.880Z,13.40
2022-11-14T11:26:26.008Z,13.40
2022-11-14T11:27:46.730Z,13.40
2022-11-14T11:29:17.109Z,13.40
2022-11-14T11:30:37.964Z,13.40
2022-11-14T11:31:59.944Z,13.30
2022-11-14T11:33:21.874Z,13.30
2022-11-14T11:34:45.259Z,13.30
2022-11-14T11:36:22.538Z,13.30
2022-11-14T11:37:58.820Z,13.20
2022-11-14T11:39:42.697Z,13.20
2022-11-14T11:44:59.443Z,13.20
2022-11-14T11:46:40.917Z,13.20
2022-11-14T11:48:14.027Z,13.30
2022-11-14T11:49:54.930Z,13.30
2022-11-14T11:51:24.661Z,13.40
2022-11-14T11:53:09.085Z,13.40
2022-11-14T11:54:45.319Z,13.40
2022-11-14T11:56:24.685Z,13.50
2022-11-14T11:57:52.993Z,13.50
2022-11-14T11:59:23.081Z,13.50
2022-11-14T12:00:45.538Z,13.60
2022-11-14T12:02:27.940Z,13.60
2022-11-14T12:03:55.185Z,13.70
2022-11-14T12:05:19.431Z,13.80
2022-11-14T12:07:08.723Z,13.90
2022-11-14T12:08:41.846Z,14.00
2022-11-14T12:10:12.868Z,14.10
2022-11-14T12:11:39.960Z,14.20
2022-11-14T12:13:17.581Z,14.30
2022-11-14T12:15:03.394Z,14.50
2022-11-14T12:16:43.108Z,14.60
2022-11-14T12:18:19.290Z,14.90
2022-11-14T12:19:59.204Z,15.00
2022-11-14T12:21:38.226Z,15.10
2022-11-14T12:23:39.488Z,15.10
2022-11-14T12:25:35.068Z,15.10
2022-11-14T12:27:12.667Z,15.00
2022-11-14T12:28:36.401Z,14.90
2022-11-14T12:30:22.466Z,14.90
2022-11-14T12:31:43.858Z,14.80
2022-11-14T12:33:19.398Z,14.70
2022-11-14T12:34:48.286Z,14.70
2022-11-14T12:36:13.493Z,14.60
2022-11-14T12:37:43.811Z,14.50
2022-11-14T12:39:06.021Z,14.50
2022-11-14T12:40:35.451Z,14.40
2022-11-14T12:42:10.150Z,14.40
2022-11-14T12:43:36.011Z,14.40
2022-11-14T12:44:57.841Z,14.40
2022-11-14T12:46:19.077Z,14.40
2022-11-14T12:48:18.457Z,14.40
2022-11-14T12:49:58.505Z,14.40
2022-11-14T12:51:25.675Z,14.40
2022-11-14T12:52:49.101Z,14.50
2022-11-14T12:54:42.731Z,14.50
2022-11-14T12:56:41.903Z,14.40
2022-11-14T12:58:07.352Z,14.30
2022-11-14T12:59:37.573Z,14.30
2022-11-14T13:01:12.589Z,14.30
2022-11-14T13:02:55.732Z,14.30
2022-11-14T13:04:40.387Z,14.20
2022-11-14T13:06:10.826Z,14.20
2022-11-14T13:07:46.565Z,14.20
2022-11-14T13:09:22.239Z,14.30
2022-11-14T13:10:45.497Z,14.40
2022-11-14T13:12:47.416Z,14.40
2022-11-14T13:14:27.247Z,14.50
2022-11-14T13:16:14.582Z,14.40
2022-11-14T13:17:54.037Z,14.50
2022-11-14T13:19:38.926Z,14.50
2022-11-14T13:21:45.373Z,14.60
2022-11-14T13:23:29.877Z,14.70
2022-11-14T13:25:00.080Z,14.60
2022-11-14T13:26:20.986Z,14.60
2022-11-14T13:29:40.839Z,14.60
2022-11-14T13:31:17.231Z,14.50
2022-11-14T13:32:41.577Z,14.50
2022-11-14T13:34:39.165Z,14.40
2022-11-14T13:36:05.465Z,14.30
2022-11-14T13:37:26.546Z,14.30
2022-11-14T13:39:25.174Z,14.20
2022-11-14T13:41:47.118Z,14.20
2022-11-14T13:43:25.200Z,14.10
2022-11-14T13:45:06.978Z,14.10
2022-11-14T13:46:33.755Z,14.00
2022-11-14T13:48:07.349Z,14.00
2022-11-14T13:49:55.518Z,14.00
2022-11-14T13:52:59.935Z,14.00
2022-11-14T13:54:21.043Z,13.90
2022-11-14T13:56:01.483Z,14.00
2022-11-14T13:57:31.980Z,14.00
2022-11-14T13:59:44.607Z,14.00
2022-11-14T14:01:08.104Z,14.00
2022-11-14T14:02:34.771Z,14.00
2022-11-14T14:04:17.822Z,14.00
2022-11-14T14:05:48.792Z,14.00
2022-11-14T14:07:33.209Z,14.00
2022-11-14T14:09:32.189Z,14.00
2022-11-14T14:11:01.743Z,14.10
2022-11-14T14:12:49.347Z,14.10
2022-11-14T14:14:37.692Z,14.20
2022-11-14T14:16:11.770Z,14.20
2022-11-14T14:17:50.335Z,14.30
2022-11-14T14:20:04.021Z,14.40
2022-11-14T14:21:58.986Z,14.50
2022-11-14T14:24:07.397Z,14.50
2022-11-14T14:25:41.687Z,14.50
2022-11-14T14:27:33.142Z,14.60
2022-11-14T14:29:16.517Z,14.70
2022-11-14T14:30:38.460Z,14.70
2022-11-14T14:32:21.016Z,14.70
2022-11-14T14:33:51.901Z,14.70
2022-11-14T14:35:26.741Z,14.70
2022-11-14T14:36:54.052Z,14.70
2022-11-14T14:38:29.116Z,14.60
2022-11-14T14:40:06.892Z,14.60
2022-11-14T14:41:33.195Z,14.60
2022-11-14T14:42:57.984Z,14.60
2022-11-14T14:44:49.426Z,14.60
2022-11-14T14:46:10.545Z,14.70
2022-11-14T14:47:42.544Z,14.70
2022-11-14T14:49:04.739Z,14.60
2022-11-14T14:50:49.903Z,14.70
2022-11-14T14:52:39.664Z,14.70
2022-11-14T14:54:01.060Z,14.70
2022-11-14T14:55:27.926Z,14.60
2022-11-14T14:57:00.050Z,14.60
2022-11-14T14:58:26.029Z,14.50
2022-11-14T14:59:47.451Z,14.40
2022-11-14T15:01:35.792Z,14.30
2022-11-14T15:02:57.216Z,14.20
2022-11-14T15:04:20.688Z,14.10
2022-11-14T15:05:41.631Z,14.00
2022-11-14T15:07:03.247Z,13.90
2022-11-14T15:08:24.141Z,13.80
2022-11-14T15:09:59.674Z,13.80
2022-11-14T15:11:20.648Z,13.70
2022-11-14T15:12:42.819Z,13.70
2022-11-14T15:14:03.984Z,13.60
2022-11-14T15:15:26.033Z,13.60
2022-11-14T15:16:51.710Z,13.50
2022-11-14T15:18:30.800Z,13.50
2022-11-14T15:19:53.879Z,13.40
2022-11-14T15:21:16.497Z,13.40
2022-11-14T15:22:39.802Z,13.30
2022-11-14T15:24:03.009Z,13.20
2022-11-14T15:25:26.082Z,13.20
2022-11-14T15:26:52.258Z,13.10
2022-11-14T15:28:20.494Z,13.10
2022-11-14T15:30:08.371Z,13.00
2022-11-14T15:31:28.991Z,12.90
2022-11-14T15:32:52.271Z,12.80
2022-11-14T15:34:28.043Z,12.80
2022-11-14T15:36:07.914Z,12.70
2022-11-14T15:37:30.615Z,12.70
2022-11-14T15:39:06.374Z,12.70
2022-11-14T15:40:27.697Z,12.60
2022-11-14T15:41:48.500Z,12.60
2022-11-14T15:43:37.316Z,12.60
2022-11-14T15:44:57.895Z,12.50
2022-11-14T15:46:36.352Z,12.50
2022-11-14T15:48:05.039Z,12.40
2022-11-14T15:49:27.479Z,12.30
2022-11-14T15:50:51.193Z,12.30
2022-11-14T15:52:24.901Z,12.30
2022-11-14T15:53:49.585Z,12.30
2022-11-14T15:55:17.752Z,12.30
2022-11-14T15:56:38.995Z,12.20
2022-11-14T15:58:26.652Z,12.20
2022-11-14T15:59:41.893Z,12.20
2022-11-14T16:01:02.989Z,12.20
2022-11-14T16:02:34.632Z,12.10
2022-11-14T16:03:55.881Z,12.10
2022-11-14T16:05:18.026Z,12.10
2022-11-14T16:06:38.658Z,12.10
2022-11-14T16:07:59.675Z,12.10
2022-11-14T16:09:21.591Z,12.10
2022-11-14T16:10:42.476Z,12.20
2022-11-14T16:12:03.302Z,12.20
2022-11-14T16:13:24.017Z,12.20
2022-11-14T16:14:45.185Z,12.20
2022-11-14T16:16:06.256Z,12.20
2022-11-14T16:17:26.933Z,12.30
2022-11-14T16:18:47.590Z,12.30
2022-11-14T16:20:16.707Z,12.30
2022-11-14T16:21:38.047Z,12.40
2022-11-14T16:22:58.792Z,12.40
2022-11-14T16:24:23.986Z,12.40
2022-11-14T16:25:44.663Z,12.40
2022-11-14T16:27:05.375Z,12.30
2022-11-14T16:28:26.146Z,12.40
2022-11-14T16:29:47.141Z,12.30
2022-11-14T16:31:15.069Z,12.30
2022-11-14T16:32:35.665Z,12.30
2022-11-14T16:33:58.110Z,12.30
2022-11-14T16:35:21.955Z,12.20
2022-11-14T16:36:45.334Z,12.20
2022-11-14T16:38:06.137Z,12.20
2022-11-14T16:39:27.077Z,12.10
2022-11-14T16:40:47.776Z,12.10
2022-11-14T16:42:11.257Z,12.10
2022-11-14T16:43:32.546Z,12.10
2022-11-14T16:44:59.700Z,12.00
2022-11-14T16:46:20.773Z,12.00
2022-11-14T16:47:41.951Z,11.90
2022-11-14T16:49:02.918Z,11.80
2022-11-14T16:50:24.102Z,11.80
2022-11-14T16:51:49.988Z,11.80
2022-11-14T16:53:11.008Z,11.80
2022-11-14T16:54:33.218Z,11.70
2022-11-14T16:55:53.782Z,11.70
2022-11-14T16:57:14.413Z,11.60
2022-11-14T16:58:52.117Z,11.50
2022-11-14T17:00:17.227Z,11.50
2022-11-14T17:01:38.772Z,11.50
2022-11-14T17:02:59.873Z,11.50
2022-11-14T17:04:34.036Z,11.40
2022-11-14T17:05:54.722Z,11.40
2022-11-14T17:07:20.154Z,11.40
2022-11-14T17:08:46.068Z,11.40
2022-11-14T17:10:07.907Z,11.40
2022-11-14T17:11:29.272Z,11.40
2022-11-14T17:12:49.539Z,11.30
2022-11-14T17:14:13.304Z,11.30
2022-11-14T17:15:34.311Z,11.30
2022-11-14T17:16:55.237Z,11.20
2022-11-14T17:18:17.387Z,11.20
2022-11-14T17:19:45.738Z,11.20
2022-11-14T17:21:08.969Z,11.20
2022-11-14T17:22:29.557Z,11.20
2022-11-14T17:23:58.030Z,11.20
2022-11-14T17:25:19.297Z,11.20
2022-11-14T17:26:40.606Z,11.10
2022-11-14T17:28:01.635Z,11.10
2022-11-14T17:29:21.981Z,11.10
2022-11-14T17:30:43.463Z,11.10
2022-11-14T17:32:04.961Z,11.10
2022-11-14T17:33:25.644Z,11.10
2022-11-14T17:34:46.682Z,11.10
2022-11-14T17:36:09.813Z,11.10
2022-11-14T17:37:30.748Z,11.10
2022-11-14T17:38:52.214Z,11.10
2022-11-14T17:40:15.743Z,11.10
2022-11-14T17:41:37.072Z,11.10
2022-11-14T17:42:57.900Z,11.00
2022-11-14T17:44:18.358Z,11.10
2022-11-14T17:45:41.365Z,11.10
2022-11-14T17:47:02.062Z,11.10
2022-11-14T17:48:24.804Z,11.20
2022-11-14T17:49:45.401Z,11.20
2022-11-14T17:51:10.324Z,11.30
2022-11-14T17:52:31.118Z,11.30
2022-11-14T17:53:52.316Z,11.30
2022-11-14T17:55:12.905Z,11.30
2022-11-14T17:56:33.862Z,11.30
2022-11-14T17:57:54.414Z,11.30
2022-11-14T17:59:15.498Z,11.30
2022-11-14T18:00:36.783Z,11.30
2022-11-14T18:02:00.056Z,11.30
2022-11-14T18:03:21.373Z,11.30
2022-11-14T18:04:41.932Z,11.30
2022-11-14T18:06:13.777Z,11.30
2022-11-14T18:07:34.695Z,11.40
2022-11-14T18:08:55.782Z,11.50
2022-11-14T18:10:17.349Z,11.50
2022-11-14T18:11:38.672Z,11.50
2022-11-14T18:13:03.848Z,11.60
2022-11-14T18:14:25.451Z,11.60
2022-11-14T18:15:46.261Z,11.70
2022-11-14T18:17:12.955Z,11.60
2022-11-14T18:18:36.190Z,11.70
2022-11-14T18:20:00.325Z,11.70
2022-11-14T18:21:23.918Z,11.70
2022-11-14T18:22:44.332Z,11.70
2022-11-14T18:24:05.491Z,11.70
2022-11-14T18:25:26.152Z,11.70
2022-11-14T18:26:46.767Z,11.70
2022-11-14T18:28:07.765Z,11.60
2022-11-14T18:29:28.735Z,11.60
2022-11-14T18:30:58.597Z,11.60
2022-11-14T18:32:19.463Z,11.60
2022-11-14T18:33:41.573Z,11.60